createdAt,value
2023-03-17T00:02:03.243Z,2.00
2023-03-17T00:09:30.450Z,2.00
2023-03-17T00:12:00.185Z,2.00
2023-03-17T00:16:57.305Z,2.00
2023-03-17T00:19:32.371Z,1.90
2023-03-17T00:22:02.257Z,1.90
2023-03-17T00:24:31.240Z,1.80
2023-03-17T00:27:01.033Z,1.70
2023-03-17T00:31:58.954Z,1.60
2023-03-17T00:34:28.336Z,1.50
2023-03-17T00:36:57.257Z,4.20
2023-03-17T00:39:27.257Z,1.50
2023-03-17T00:41:56.376Z,1.40
2023-03-17T00:44:26.535Z,1.40
2023-03-17T00:46:56.558Z,1.40
2023-03-17T00:49:27.040Z,1.40
2023-03-17T00:51:55.877Z,1.40
2023-03-17T00:54:24.557Z,1.40
2023-03-17T00:56:53.590Z,1.40
2023-03-17T00:59:29.798Z,1.50
2023-03-17T01:01:59.763Z,1.50
2023-03-17T01:04:28.697Z,1.50
2023-03-17T01:06:59.355Z,1.50
2023-03-17T01:09:30.790Z,1.50
2023-03-17T01:14:30.064Z,1.50
2023-03-17T01:17:02.235Z,1.60
2023-03-17T01:21:59.496Z,1.50
2023-03-17T01:24:28.595Z,1.50
2023-03-17T01:26:56.995Z,1.50
2023-03-17T01:31:55.725Z,1.50
2023-03-17T01:39:22.612Z,1.50
2023-03-17T01:41:56.253Z,1.50
2023-03-17T01:44:25.833Z,1.40
2023-03-17T01:46:55.802Z,1.40
2023-03-17T01:49:30.812Z,1.40
2023-03-17T01:52:07.747Z,1.30
2023-03-17T01:54:42.808Z,1.60
2023-03-17T01:57:20.100Z,1.30
2023-03-17T01:59:54.431Z,1.30
2023-03-17T02:02:29.799Z,1.30
2023-03-17T02:05:00.049Z,2.10
2023-03-17T02:07:30.077Z,1.10
2023-03-17T02:09:59.128Z,1.20
2023-03-17T02:12:30.886Z,1.20
2023-03-17T02:14:59.848Z,1.20
2023-03-17T02:20:15.732Z,1.20
2023-03-17T02:22:48.305Z,1.20
2023-03-17T02:25:19.992Z,1.10
2023-03-17T02:27:53.156Z,1.10
2023-03-17T02:30:25.291Z,1.10
2023-03-17T02:32:53.757Z,1.10
2023-03-17T02:35:23.850Z,1.10
2023-03-17T02:37:53.887Z,1.10
2023-03-17T02:40:22.454Z,1.10
2023-03-17T02:42:51.372Z,1.00
2023-03-17T02:47:51.559Z,1.00
2023-03-17T02:50:23.984Z,1.00
2023-03-17T02:52:54.694Z,1.60
2023-03-17T02:55:23.233Z,1.10
2023-03-17T02:57:51.838Z,1.00
2023-03-17T03:00:21.620Z,1.00
2023-03-17T03:02:50.112Z,1.00
2023-03-17T03:05:19.839Z,1.00
2023-03-17T03:07:48.262Z,1.00
2023-03-17T03:10:18.987Z,1.00
2023-03-17T03:15:16.418Z,1.00
2023-03-17T03:20:14.608Z,0.90
2023-03-17T03:27:42.029Z,0.90
2023-03-17T03:30:12.369Z,0.90
2023-03-17T03:32:41.478Z,0.90
2023-03-17T03:35:10.761Z,0.90
2023-03-17T03:37:39.196Z,0.90
2023-03-17T03:40:09.203Z,1.00
2023-03-17T03:42:37.627Z,0.90
2023-03-17T03:45:09.096Z,1.00
2023-03-17T03:47:37.647Z,1.00
2023-03-17T03:50:07.707Z,1.00
2023-03-17T03:52:36.184Z,1.10
2023-03-17T03:55:05.015Z,1.10
2023-03-17T04:00:02.792Z,1.20
2023-03-17T04:02:45.026Z,0.20
2023-03-17T04:05:14.570Z,1.20
2023-03-17T04:07:43.246Z,1.20
2023-03-17T04:10:14.366Z,1.20
2023-03-17T04:12:43.287Z,1.20
2023-03-17T04:15:16.688Z,1.20
2023-03-17T04:17:47.140Z,1.20
2023-03-17T04:22:46.678Z,3.10
2023-03-17T04:25:17.030Z,1.10
2023-03-17T04:27:46.657Z,1.10
2023-03-17T04:30:17.011Z,1.10
2023-03-17T04:32:47.698Z,1.10
2023-03-17T04:35:19.080Z,1.00
2023-03-17T04:37:48.590Z,1.00
2023-03-17T04:42:47.380Z,1.00
2023-03-17T04:45:16.763Z,1.00
2023-03-17T04:47:47.226Z,1.00
2023-03-17T04:50:18.010Z,0.90
2023-03-17T04:52:46.692Z,0.90
2023-03-17T04:55:15.561Z,1.00
2023-03-17T05:00:15.564Z,1.00
2023-03-17T05:05:14.603Z,1.10
2023-03-17T05:07:44.803Z,-2.20
2023-03-17T05:10:14.153Z,1.20
2023-03-17T05:12:42.628Z,1.20
2023-03-17T05:15:12.207Z,1.20
2023-03-17T05:20:12.311Z,1.20
2023-03-17T05:22:42.716Z,1.20
2023-03-17T05:25:11.292Z,1.20
2023-03-17T05:27:39.681Z,1.10
2023-03-17T05:30:10.037Z,1.10
2023-03-17T05:35:08.420Z,1.50
2023-03-17T05:40:08.412Z,1.20
2023-03-17T05:45:06.281Z,1.30
2023-03-17T05:47:36.228Z,1.30
2023-03-17T05:50:06.794Z,1.30
2023-03-17T05:57:34.275Z,1.40
2023-03-17T06:00:05.532Z,1.40
2023-03-17T06:05:03.843Z,1.40
2023-03-17T06:07:44.605Z,1.50
2023-03-17T06:10:18.926Z,1.40
2023-03-17T06:12:49.196Z,1.50
2023-03-17T06:15:19.006Z,1.40
2023-03-17T06:17:47.334Z,1.10
2023-03-17T06:20:16.454Z,1.60
2023-03-17T06:25:32.710Z,1.60
2023-03-17T06:28:04.078Z,1.70
2023-03-17T06:30:34.071Z,1.70
2023-03-17T06:35:32.954Z,1.90
2023-03-17T06:40:32.283Z,2.50
2023-03-17T06:43:03.130Z,2.80
2023-03-17T06:45:33.303Z,3.00
2023-03-17T06:48:02.417Z,3.10
2023-03-17T06:52:59.811Z,3.50
2023-03-17T06:55:29.531Z,3.80
2023-03-17T07:00:30.380Z,4.10
2023-03-17T07:02:58.955Z,4.50
2023-03-17T07:07:56.544Z,4.80
2023-03-17T07:10:25.058Z,4.70
2023-03-17T07:12:53.897Z,4.80
2023-03-17T07:15:22.302Z,4.90
2023-03-17T07:17:52.331Z,5.20
2023-03-17T07:20:21.179Z,5.40
2023-03-17T07:22:49.868Z,5.70
2023-03-17T07:25:18.676Z,5.80
2023-03-17T07:27:47.085Z,5.60
2023-03-17T07:30:19.213Z,5.40
2023-03-17T07:32:48.185Z,5.50
2023-03-17T07:35:19.252Z,5.80
2023-03-17T07:37:47.674Z,6.20
2023-03-17T07:40:18.454Z,6.20
2023-03-17T07:42:46.846Z,6.20
2023-03-17T07:45:15.509Z,6.30
2023-03-17T07:47:44.221Z,6.30
2023-03-17T07:52:44.105Z,6.60
2023-03-17T07:55:12.598Z,5.80
2023-03-17T07:57:41.818Z,7.40
2023-03-17T08:00:13.766Z,7.90
2023-03-17T08:02:42.449Z,8.20
2023-03-17T08:05:11.623Z,8.60
2023-03-17T08:07:40.591Z,8.50
2023-03-17T08:10:12.960Z,8.70
2023-03-17T08:12:42.719Z,8.90
2023-03-17T08:15:13.173Z,8.70
2023-03-17T08:17:42.058Z,9.10
2023-03-17T08:20:13.131Z,9.20
2023-03-17T08:22:42.077Z,9.30
2023-03-17T08:25:13.107Z,9.60
2023-03-17T08:27:42.035Z,9.70
2023-03-17T08:30:12.785Z,10.10
2023-03-17T08:32:41.356Z,10.60
2023-03-17T08:35:16.002Z,11.00
2023-03-17T08:37:44.707Z,10.80
2023-03-17T08:40:18.458Z,10.60
2023-03-17T08:42:49.451Z,10.30
2023-03-17T08:45:19.476Z,10.00
2023-03-17T08:47:48.344Z,10.00
2023-03-17T08:50:22.230Z,10.10
2023-03-17T08:52:52.518Z,10.00
2023-03-17T08:55:22.382Z,10.20
2023-03-17T09:00:21.903Z,10.40
2023-03-17T09:02:50.579Z,10.20
2023-03-17T09:05:20.729Z,10.40
2023-03-17T09:07:50.689Z,10.60
2023-03-17T09:10:22.590Z,10.80
2023-03-17T09:12:53.394Z,10.80
2023-03-17T09:15:22.066Z,10.80
2023-03-17T09:17:50.489Z,10.70
2023-03-17T09:20:19.276Z,10.80
2023-03-17T09:22:49.154Z,10.90
2023-03-17T09:25:18.561Z,10.80
2023-03-17T09:27:46.897Z,10.90
2023-03-17T09:30:17.767Z,11.00
2023-03-17T09:32:47.117Z,11.10
2023-03-17T09:35:15.772Z,11.10
2023-03-17T09:40:19.231Z,10.90
2023-03-17T09:43:13.221Z,10.80
2023-03-17T09:45:44.670Z,10.60
2023-03-17T09:48:46.914Z,10.40
2023-03-17T09:51:20.172Z,10.20
2023-03-17T09:53:59.990Z,10.30
2023-03-17T09:56:32.866Z,10.40
2023-03-17T09:59:07.387Z,10.30
2023-03-17T10:01:41.814Z,10.50
2023-03-17T10:04:12.080Z,10.70
2023-03-17T10:06:46.686Z,11.00
2023-03-17T10:09:27.858Z,11.30
2023-03-17T10:12:07.478Z,11.50
2023-03-17T10:14:51.289Z,11.70
2023-03-17T10:17:27.097Z,12.10
2023-03-17T10:20:05.789Z,12.30
2023-03-17T10:22:42.783Z,12.60
2023-03-17T10:25:17.911Z,13.00
2023-03-17T10:27:54.709Z,13.60
2023-03-17T10:30:24.957Z,14.00
2023-03-17T10:32:59.932Z,14.50
2023-03-17T10:35:29.848Z,14.80
2023-03-17T10:38:13.550Z,14.80
2023-03-17T10:43:21.778Z,15.50
2023-03-17T10:46:02.514Z,15.50
2023-03-17T10:48:37.910Z,15.60
2023-03-17T10:51:11.097Z,15.80
2023-03-17T10:53:43.503Z,16.30
2023-03-17T10:56:24.483Z,15.90
2023-03-17T10:58:55.550Z,15.90
2023-03-17T11:01:31.171Z,16.30
2023-03-17T11:04:02.833Z,16.60
2023-03-17T11:06:40.065Z,16.60
2023-03-17T11:09:12.529Z,17.00
2023-03-17T11:11:47.127Z,17.10
2023-03-17T11:14:18.603Z,17.40
2023-03-17T11:16:55.703Z,17.80
2023-03-17T11:19:42.051Z,17.90
2023-03-17T11:22:17.907Z,18.20
2023-03-17T11:25:00.802Z,18.30
2023-03-17T11:27:36.348Z,18.70
2023-03-17T11:30:21.339Z,18.70
2023-03-17T11:32:59.097Z,18.70
2023-03-17T11:35:42.029Z,18.70
2023-03-17T11:38:22.105Z,19.00
2023-03-17T11:41:35.827Z,19.20
2023-03-17T11:44:59.274Z,18.80
2023-03-17T11:47:43.361Z,18.50
2023-03-17T11:50:27.929Z,18.10
2023-03-17T11:53:22.897Z,18.40
2023-03-17T11:55:58.915Z,18.60
2023-03-17T11:58:36.173Z,18.80
2023-03-17T12:01:10.134Z,18.90
2023-03-17T12:03:46.256Z,18.60
2023-03-17T12:06:20.675Z,18.50
2023-03-17T12:08:59.731Z,18.60
2023-03-17T12:11:31.913Z,19.10
2023-03-17T12:14:06.847Z,19.10
2023-03-17T12:16:42.431Z,19.00
2023-03-17T12:19:21.119Z,19.00
2023-03-17T12:21:55.673Z,19.10
2023-03-17T12:24:35.078Z,19.40
2023-03-17T12:27:10.292Z,19.20
2023-03-17T12:29:49.763Z,19.20
2023-03-17T12:32:25.506Z,19.00
2023-03-17T12:34:57.635Z,18.60
2023-03-17T12:37:30.221Z,18.60
2023-03-17T12:40:09.954Z,18.30
2023-03-17T12:42:47.977Z,18.00
2023-03-17T12:45:54.444Z,17.90
2023-03-17T12:49:13.449Z,18.00
2023-03-17T12:52:04.352Z,17.90
2023-03-17T12:54:37.307Z,18.10
2023-03-17T12:57:16.422Z,18.30
2023-03-17T12:59:48.391Z,18.30
2023-03-17T13:02:32.132Z,18.30
2023-03-17T13:05:06.227Z,18.40
2023-03-17T13:07:42.293Z,18.80
2023-03-17T13:10:38.663Z,19.70
2023-03-17T13:13:36.809Z,19.70
2023-03-17T13:16:07.461Z,19.40
2023-03-17T13:19:09.375Z,19.10
2023-03-17T13:21:39.105Z,19.20
2023-03-17T13:24:47.620Z,19.30
2023-03-17T13:27:45.257Z,19.40
2023-03-17T13:33:24.336Z,19.20
2023-03-17T13:36:17.947Z,18.80
2023-03-17T13:39:24.781Z,18.60
2023-03-17T13:42:28.630Z,18.60
2023-03-17T13:45:27.219Z,19.00
2023-03-17T13:48:28.752Z,19.60
2023-03-17T13:51:03.049Z,19.60
2023-03-17T13:53:38.538Z,19.20
2023-03-17T13:56:19.646Z,18.80
2023-03-17T13:59:14.511Z,18.60
2023-03-17T14:01:50.154Z,18.10
2023-03-17T14:04:41.154Z,18.10
2023-03-17T14:07:20.089Z,18.00
2023-03-17T14:09:52.248Z,18.00
2023-03-17T14:12:29.777Z,18.00
2023-03-17T14:15:08.373Z,18.30
2023-03-17T14:17:46.611Z,17.90
2023-03-17T14:20:26.047Z,17.80
2023-03-17T14:23:00.753Z,17.80
2023-03-17T14:25:35.677Z,17.60
2023-03-17T14:28:11.180Z,17.60
2023-03-17T14:30:40.401Z,17.60
2023-03-17T14:33:22.563Z,18.10
2023-03-17T14:35:57.559Z,18.00
2023-03-17T14:38:30.412Z,18.10
2023-03-17T14:41:05.113Z,18.30
2023-03-17T14:43:36.108Z,18.10
2023-03-17T14:46:08.023Z,18.00
2023-03-17T14:48:39.259Z,18.10
2023-03-17T14:51:28.060Z,17.80
2023-03-17T14:54:02.153Z,17.60
2023-03-17T14:56:37.099Z,17.40
2023-03-17T14:59:09.103Z,17.20
2023-03-17T15:01:43.757Z,17.00
2023-03-17T15:04:18.284Z,16.90
2023-03-17T15:09:31.636Z,16.40
2023-03-17T15:12:06.869Z,16.40
2023-03-17T15:14:39.864Z,16.50
2023-03-17T15:17:19.942Z,16.30
2023-03-17T15:19:52.492Z,16.40
2023-03-17T15:22:27.630Z,16.50
2023-03-17T15:25:02.562Z,16.70
2023-03-17T15:27:32.805Z,16.80
2023-03-17T15:30:01.184Z,17.00
2023-03-17T15:32:31.262Z,17.20
2023-03-17T15:37:32.973Z,17.30
2023-03-17T15:40:03.372Z,17.30
2023-03-17T15:42:35.803Z,18.00
2023-03-17T15:45:05.909Z,17.20
2023-03-17T15:47:40.033Z,17.20
2023-03-17T15:52:47.887Z,17.10
2023-03-17T15:55:21.912Z,16.80
2023-03-17T15:57:55.245Z,16.90
2023-03-17T16:00:26.693Z,16.80
2023-03-17T16:02:58.045Z,15.30
2023-03-17T16:05:30.383Z,16.70
2023-03-17T16:08:00.121Z,16.70
2023-03-17T16:10:30.799Z,16.40
2023-03-17T16:13:00.365Z,16.00
2023-03-17T16:15:32.117Z,15.80
2023-03-17T16:18:05.593Z,15.70
2023-03-17T16:20:40.284Z,15.60
2023-03-17T16:23:16.712Z,15.30
2023-03-17T16:25:46.582Z,14.90
2023-03-17T16:28:19.149Z,14.70
2023-03-17T16:30:49.260Z,14.40
2023-03-17T16:35:50.281Z,13.80
2023-03-17T16:38:23.332Z,13.50
2023-03-17T16:40:54.258Z,13.30
2023-03-17T16:43:28.083Z,13.10
2023-03-17T16:46:00.454Z,12.80
2023-03-17T16:48:29.173Z,12.60
2023-03-17T16:50:58.742Z,12.30
2023-03-17T16:53:28.605Z,12.30
2023-03-17T16:55:57.598Z,12.10
2023-03-17T17:01:02.760Z,11.60
2023-03-17T17:03:32.730Z,11.40
2023-03-17T17:06:01.190Z,11.20
2023-03-17T17:08:31.076Z,11.00
2023-03-17T17:10:59.522Z,10.90
2023-03-17T17:13:28.073Z,10.80
2023-03-17T17:15:57.053Z,10.60
2023-03-17T17:18:25.658Z,10.50
2023-03-17T17:20:55.541Z,10.40
2023-03-17T17:23:28.261Z,10.30
2023-03-17T17:25:58.050Z,10.30
2023-03-17T17:28:27.215Z,10.20
2023-03-17T17:30:55.658Z,10.20
2023-03-17T17:33:25.103Z,10.10
2023-03-17T17:35:54.595Z,10.00
2023-03-17T17:38:26.847Z,9.80
2023-03-17T17:40:58.820Z,9.60
2023-03-17T17:43:27.891Z,9.40
2023-03-17T17:48:28.096Z,9.30
2023-03-17T17:50:58.182Z,9.40
2023-03-17T17:53:27.047Z,9.40
2023-03-17T17:58:27.493Z,9.20
2023-03-17T18:00:57.674Z,9.20
2023-03-17T18:05:57.811Z,9.20
2023-03-17T18:13:27.009Z,9.00
2023-03-17T18:15:55.382Z,8.90
2023-03-17T18:18:23.942Z,8.80
2023-03-17T18:20:53.876Z,8.70
2023-03-17T18:23:23.054Z,8.60
2023-03-17T18:28:22.361Z,8.60
2023-03-17T18:30:50.954Z,8.70
2023-03-17T18:33:23.018Z,8.60
2023-03-17T18:35:55.424Z,8.70
2023-03-17T18:40:52.916Z,8.70
2023-03-17T18:43:22.796Z,8.60
2023-03-17T18:45:51.279Z,8.00
2023-03-17T18:48:20.362Z,8.70
2023-03-17T18:53:17.984Z,8.70
2023-03-17T18:55:47.124Z,8.80
2023-03-17T19:00:47.293Z,8.70
2023-03-17T19:08:15.245Z,8.70
2023-03-17T19:10:45.098Z,8.30
2023-03-17T19:13:14.156Z,8.30
2023-03-17T19:15:43.021Z,8.40
2023-03-17T19:18:13.094Z,8.50
2023-03-17T19:20:43.609Z,8.60
2023-03-17T19:23:12.559Z,8.60
2023-03-17T19:25:41.137Z,8.50
2023-03-17T19:28:09.492Z,9.10
2023-03-17T19:30:39.144Z,8.30
2023-03-17T19:33:08.167Z,8.20
2023-03-17T19:35:38.148Z,8.30
2023-03-17T19:40:37.652Z,9.30
2023-03-17T19:43:06.839Z,8.60
2023-03-17T19:45:35.498Z,8.40
2023-03-17T19:48:04.230Z,8.50
2023-03-17T19:50:33.289Z,8.60
2023-03-17T19:53:03.215Z,9.70
2023-03-17T19:55:31.936Z,8.50
2023-03-17T19:58:00.789Z,7.60
2023-03-17T20:00:29.629Z,8.50
2023-03-17T20:02:58.970Z,8.40
2023-03-17T20:05:27.634Z,8.40
2023-03-17T20:07:55.953Z,8.30
2023-03-17T20:12:55.062Z,7.90
2023-03-17T20:17:52.255Z,7.60
2023-03-17T20:20:20.819Z,7.50
2023-03-17T20:22:49.273Z,7.50
2023-03-17T20:27:49.052Z,5.80
2023-03-17T20:30:17.757Z,7.30
2023-03-17T20:35:15.813Z,7.10
2023-03-17T20:37:44.224Z,6.90
2023-03-17T20:40:14.424Z,6.70
2023-03-17T20:42:42.956Z,6.70
2023-03-17T20:47:42.642Z,6.40
2023-03-17T20:50:13.114Z,6.60
2023-03-17T20:52:42.102Z,6.80
2023-03-17T20:55:14.001Z,6.90
2023-03-17T20:57:45.344Z,7.10
2023-03-17T21:00:20.312Z,7.20
2023-03-17T21:02:50.623Z,7.30
2023-03-17T21:05:23.827Z,7.30
2023-03-17T21:07:53.556Z,7.20
2023-03-17T21:12:51.059Z,7.00
2023-03-17T21:15:22.902Z,7.00
2023-03-17T21:17:51.496Z,6.90
2023-03-17T21:20:21.659Z,6.90
2023-03-17T21:22:50.419Z,6.70
2023-03-17T21:25:19.327Z,7.00
2023-03-17T21:30:17.804Z,6.70
2023-03-17T21:32:47.945Z,6.60
2023-03-17T21:35:17.486Z,6.40
2023-03-17T21:37:45.869Z,6.10
2023-03-17T21:40:15.733Z,6.30
2023-03-17T21:42:44.367Z,6.30
2023-03-17T21:47:42.835Z,6.30
2023-03-17T21:50:13.909Z,6.20
2023-03-17T21:55:11.984Z,6.10
2023-03-17T21:57:40.592Z,5.90
2023-03-17T22:00:11.714Z,5.80
2023-03-17T22:02:42.949Z,5.70
2023-03-17T22:05:12.930Z,5.60
2023-03-17T22:07:41.565Z,5.50
2023-03-17T22:10:11.728Z,5.60
2023-03-17T22:12:40.462Z,5.70
2023-03-17T22:15:10.361Z,6.20
2023-03-17T22:17:39.723Z,5.70
2023-03-17T22:20:10.578Z,5.60
2023-03-17T22:22:40.390Z,5.60
2023-03-17T22:25:09.614Z,5.70
2023-03-17T22:30:07.585Z,6.00
2023-03-17T22:35:05.054Z,6.00
2023-03-17T22:37:33.522Z,5.90
2023-03-17T22:40:06.372Z,5.90
2023-03-17T22:42:34.897Z,5.80
2023-03-17T22:47:32.854Z,5.50
2023-03-17T22:50:01.229Z,5.10
2023-03-17T22:52:29.849Z,5.00
2023-03-17T22:54:58.660Z,5.50
2023-03-17T22:57:28.391Z,4.80
2023-03-17T22:59:58.328Z,4.80
2023-03-17T23:02:27.538Z,4.70
2023-03-17T23:04:55.904Z,4.70
2023-03-17T23:09:52.989Z,4.50
2023-03-17T23:14:54.367Z,4.30
2023-03-17T23:17:23.097Z,4.30
2023-03-17T23:24:50.001Z,4.10
2023-03-17T23:27:18.543Z,4.00
2023-03-17T23:32:17.392Z,3.80
2023-03-17T23:37:15.505Z,3.80
2023-03-17T23:47:11.518Z,3.50
2023-03-17T23:49:41.162Z,3.50
2023-03-17T23:52:10.306Z,3.50
2023-03-17T23:54:39.137Z,3.60
2023-03-17T23:59:37.107Z,3.60
